Terminal Aerodrome Forecast
Issued by NWS

Home | Current Version | Previous Version | Text Only | Print | Product List | Glossary On
Versions: 1 2 3 4 5 6 7 8 9 10 11 12
000
FTUS44 KMAF 200500
TAFHOB
TAF
KHOB 200526Z 2006/2106 16010KT P6SM FEW250
     FM201600 16011G21KT P6SM SCT050 SCT250
     FM210200 17007KT P6SM FEW200=

USA.gov is the U.S. government's official web portal to all federal, state and local government web resources and services.